EDT,Max TemperatureF,Mean TemperatureF,Min TemperatureF,Max Dew PointF,MeanDew PointF,Min DewpointF,Max Humidity, Mean Humidity, Min Humidity, Max Sea Level PressureIn, Mean Sea Level PressureIn, Min Sea Level PressureIn, Max VisibilityMiles, Mean VisibilityMiles, Min VisibilityMiles, Max Wind SpeedMPH, Mean Wind SpeedMPH, Max Gust SpeedMPH,PrecipitationIn, CloudCover, Events, WindDirDegrees
2014-3-1,46,33,19,31,21,5,77,55,33,30.22,30.18,30.12,10,10,10,15,5,23,0.00,5,,201
2014-3-2,43,30,17,30,24,15,100,79,57,30.16,30.10,30.06,10,3,0,13,7,16,0.42,8,Fog-Rain-Snow,353
2014-3-3,19,12,4,13,3,-6,92,70,47,30.42,30.28,30.12,10,7,1,16,6,21,0.10,5,Snow,359
2014-3-4,36,19,1,14,5,-2,95,62,29,30.42,30.30,30.19,10,10,9,6,1,8,0.00,1,,320
2014-3-5,37,26,14,14,11,7,80,56,32,30.39,30.29,30.21,10,10,10,17,5,20,0.00,3,,357
2014-3-6,38,30,21,17,14,11,68,54,40,30.40,30.32,30.22,10,10,10,16,9,22,0.00,2,,76
2014-3-7,54,41,28,31,26,18,82,62,41,30.19,30.07,29.97,10,10,10,14,4,18,0.00,0,,104
2014-3-8,57,42,27,38,31,26,92,64,35,30.05,30.00,29.95,10,9,3,21,6,30,T,4,,288
2014-3-9,41,34,26,30,22,13,85,62,38,30.25,30.12,30.01,10,9,6,12,6,16,0.00,4,,303
2014-3-10,62,50,38,33,28,21,59,44,29,30.01,29.84,29.70,10,10,10,18,9,27,0.00,3,,212
2014-3-11,70,58,45,39,37,34,61,47,32,29.75,29.69,29.62,10,10,10,13,6,18,0.00,1,,211
2014-3-12,60,40,19,54,37,15,93,72,51,29.76,29.38,29.09,10,7,1,22,9,35,0.67,7,Rain-Snow,261
2014-3-13,28,18,10,15,6,1,81,60,36,30.21,30.03,29.76,10,8,1,12,8,24,0.00,6,Snow,287
2014-3-14,60,44,27,33,19,8,50,38,26,30.17,30.00,29.82,10,10,10,22,10,36,0.00,3,,208
2014-3-15,56,46,36,41,29,18,82,53,24,30.12,29.95,29.80,10,10,8,28,9,42,0.05,4,Rain,263
2014-3-16,36,31,25,26,17,8,92,64,36,30.22,30.12,30.00,10,8,1,18,10,23,0.07,4,Snow,22
2014-3-17,37,31,24,24,21,18,100,76,52,30.01,29.94,29.89,10,5,1,12,6,18,0.09,8,Snow,43
2014-3-18,51,41,30,31,27,22,72,58,44,30.07,30.02,29.96,10,10,10,14,8,21,0.00,3,,109
2014-3-19,68,53,38,43,38,31,76,55,34,30.03,29.89,29.73,10,10,9,18,9,32,T,4,Rain,203
2014-3-20,47,42,37,37,27,22,70,56,41,30.05,29.98,29.86,10,10,10,17,8,28,0.01,7,,269
2014-3-21,51,43,35,36,34,31,92,74,56,30.11,30.03,29.90,10,7,3,12,3,14,T,5,Rain,20
2014-3-22,59,48,37,33,28,20,70,47,24,30.11,29.94,29.79,10,10,10,17,8,25,0.00,1,,277
2014-3-23,38,29,19,28,21,8,75,57,39,30.33,30.16,30.10,10,10,9,15,7,21,0.00,7,,339
2014-3-24,36,25,14,11,6,3,67,47,26,30.35,30.26,30.13,10,10,10,10,3,16,0.00,0,,326
2014-3-25,36,31,25,25,19,9,81,62,42,30.12,29.98,29.88,10,9,2,14,4,25,T,7,Snow,250
2014-3-26,30,24,18,19,13,5,84,60,35,30.35,30.18,30.03,10,6,0,15,6,22,0.02,6,Fog-Snow,301
2014-3-27,59,38,17,20,11,2,80,46,11,30.36,30.19,29.95,10,10,10,14,6,22,0.00,3,,189
2014-3-28,66,56,45,49,39,21,66,46,26,30.12,29.97,29.91,10,10,8,17,8,29,0.03,7,Rain,219
2014-3-29,63,51,38,50,43,36,100,79,57,30.12,29.82,29.65,10,7,2,20,7,23,1.00,6,Rain,18
2014-3-30,49,40,31,37,30,21,100,71,41,30.14,29.93,29.77,10,5,0,16,7,27,0.30,7,Fog-Rain-Snow,318
2014-3-31,61,44,26,29,22,19,92,57,21,30.26,30.18,30.14,10,10,10,8,3,11,0.00,0,,183